createdAt,value
2023-03-29T11:33:37.582Z,2.90
2023-03-29T11:51:39.138Z,2.65
2023-03-29T11:53:27.188Z,2.60
2023-03-29T11:56:09.394Z,3.15
2023-03-29T11:58:11.340Z,3.25
2023-03-29T12:08:55.850Z,2.65
2023-03-29T12:13:29.575Z,3.15
2023-03-29T12:15:32.887Z,2.35
2023-03-29T12:17:45.435Z,2.75
2023-03-29T12:19:30.059Z,2.33
2023-03-29T12:21:15.494Z,2.83
2023-03-29T12:23:20.839Z,2.28
2023-03-29T12:25:14.722Z,2.55
2023-03-29T12:27:10.425Z,3.30
2023-03-29T12:29:23.421Z,2.88
2023-03-29T12:31:29.824Z,2.60
2023-03-29T12:33:46.878Z,2.75
2023-03-29T12:36:11.278Z,2.47
2023-03-29T12:38:15.428Z,3.50
2023-03-29T12:40:38.052Z,2.53
2023-03-29T12:42:44.853Z,2.72
2023-03-29T12:44:33.038Z,2.55
2023-03-29T12:46:31.917Z,2.72
2023-03-29T12:48:55.732Z,2.83
2023-03-29T12:50:33.969Z,3.00
2023-03-29T12:52:26.052Z,2.90
2023-03-29T12:54:28.070Z,2.67
2023-03-29T12:56:23.034Z,3.03
2023-03-29T12:58:50.327Z,3.00
2023-03-29T13:01:01.045Z,3.13
2023-03-29T13:03:52.366Z,2.90
2023-03-29T13:05:44.943Z,3.42
2023-03-29T13:07:37.738Z,3.08
2023-03-29T13:10:00.193Z,2.92
2023-03-29T13:12:20.871Z,2.50
2023-03-29T13:14:15.925Z,3.25
2023-03-29T13:16:14.973Z,2.47
2023-03-29T13:18:18.157Z,2.78
2023-03-29T13:20:32.836Z,2.92
2023-03-29T13:22:49.848Z,2.55
2023-03-29T13:24:32.961Z,2.30
2023-03-29T13:26:13.855Z,3.60
2023-03-29T13:28:03.263Z,2.50
2023-03-29T13:30:00.574Z,2.30
2023-03-29T13:31:47.496Z,1.90
2023-03-29T13:34:20.565Z,2.17
2023-03-29T13:36:20.559Z,2.20
2023-03-29T13:38:00.807Z,1.80
2023-03-29T13:39:48.137Z,1.58
2023-03-29T13:42:05.054Z,1.92
2023-03-29T13:57:00.090Z,1.45
2023-03-29T13:59:03.482Z,1.40
2023-03-29T14:02:18.605Z,1.10
2023-03-29T14:07:11.742Z,1.40
2023-03-29T14:08:56.049Z,1.58
2023-03-29T14:10:42.338Z,1.30
2023-03-29T14:12:25.158Z,1.20
2023-03-29T14:14:45.272Z,1.35
2023-03-29T14:17:14.184Z,1.38
2023-03-29T14:18:53.696Z,2.05
2023-03-29T14:20:36.438Z,1.70
2023-03-29T14:22:29.289Z,1.50
2023-03-29T14:24:02.678Z,1.40
2023-03-29T14:25:39.404Z,1.40
2023-03-29T14:27:18.980Z,1.75
2023-03-29T14:28:57.099Z,1.83
2023-03-29T14:30:38.251Z,1.30
2023-03-29T14:32:32.844Z,1.20
2023-03-29T14:34:21.181Z,1.50
2023-03-29T14:35:59.880Z,1.75
2023-03-29T14:37:35.512Z,1.27
2023-03-29T14:39:18.464Z,1.35
2023-03-29T14:40:53.707Z,1.77
2023-03-29T14:42:33.236Z,1.42
2023-03-29T14:44:20.101Z,1.42
2023-03-29T14:45:58.365Z,1.25
2023-03-29T14:47:37.410Z,1.75
2023-03-29T14:49:12.394Z,1.63
2023-03-29T14:50:52.106Z,1.50
2023-03-29T14:52:33.588Z,1.60
2023-03-29T14:54:33.361Z,1.23
2023-03-29T14:56:47.393Z,1.05
2023-03-29T14:58:33.028Z,1.40
2023-03-29T15:00:30.118Z,1.45
2023-03-29T15:04:42.502Z,1.00
2023-03-29T15:06:28.062Z,1.35
2023-03-29T15:09:14.681Z,1.40
2023-03-29T15:11:55.528Z,1.35
2023-03-29T15:14:12.164Z,1.48
2023-03-29T15:17:07.668Z,1.25
2023-03-29T15:32:16.655Z,1.48
2023-03-29T15:38:17.931Z,2.10
2023-03-29T15:39:58.548Z,1.58
2023-03-29T15:45:54.146Z,1.92
2023-03-29T15:49:42.837Z,1.67
2023-03-29T15:51:25.437Z,1.00
2023-03-29T15:53:15.135Z,1.35
2023-03-29T15:56:36.502Z,1.30
2023-03-29T15:59:24.160Z,1.23
2023-03-29T16:01:23.851Z,1.70
2023-03-29T16:03:05.214Z,1.23
2023-03-29T16:04:37.420Z,1.23
2023-03-29T16:06:24.229Z,1.10
2023-03-29T16:07:56.406Z,1.15
2023-03-29T16:09:28.492Z,1.30
2023-03-29T16:11:04.888Z,0.98
2023-03-29T16:12:42.108Z,1.00
2023-03-29T16:17:03.383Z,1.00
2023-03-29T16:18:37.415Z,1.20
2023-03-29T16:20:11.741Z,1.27
2023-03-29T16:21:43.857Z,0.90
2023-03-29T16:23:16.128Z,0.88
2023-03-29T16:24:52.834Z,1.33
2023-03-29T16:26:30.939Z,1.00
2023-03-29T16:29:01.477Z,0.93
2023-03-29T16:30:30.557Z,1.35
2023-03-29T16:36:15.976Z,0.90
2023-03-29T16:44:52.437Z,1.10
2023-03-29T16:46:24.539Z,1.13
2023-03-29T16:47:58.236Z,0.95
2023-03-29T16:49:32.617Z,1.30
2023-03-29T16:51:09.814Z,0.82
2023-03-29T16:52:52.824Z,1.00
2023-03-29T16:54:29.989Z,1.05
2023-03-29T16:56:03.317Z,0.90
2023-03-29T16:57:36.360Z,1.00
2023-03-29T16:59:16.777Z,0.80
2023-03-29T17:00:52.229Z,0.98
2023-03-29T17:02:26.837Z,1.25
2023-03-29T17:04:01.704Z,1.23
2023-03-29T17:05:41.879Z,0.98
2023-03-29T17:07:19.223Z,1.95
2023-03-29T17:08:51.594Z,1.30
2023-03-29T17:10:26.624Z,1.25
2023-03-29T17:12:01.123Z,1.10
2023-03-29T17:13:34.950Z,1.98
2023-03-29T17:15:09.850Z,1.38
2023-03-29T17:16:53.178Z,1.48
2023-03-29T18:05:09.237Z,1.48
2023-03-29T18:06:52.453Z,1.13
